createdAt,value
2017-05-19T00:01:45.472Z,86.40
2017-05-19T00:04:12.460Z,86.30
2017-05-19T00:06:39.416Z,86.60
2017-05-19T00:09:06.425Z,86.10
2017-05-19T00:11:33.409Z,86.10
2017-05-19T00:14:00.380Z,86.00
2017-05-19T00:16:27.360Z,85.40
2017-05-19T00:18:54.325Z,86.00
2017-05-19T00:21:21.313Z,85.40
2017-05-19T00:23:48.277Z,85.20
2017-05-19T00:26:15.349Z,85.00
2017-05-19T00:28:42.309Z,84.90
2017-05-19T00:31:09.292Z,85.30
2017-05-19T00:33:36.268Z,85.60
2017-05-19T00:36:03.225Z,85.80
2017-05-19T00:38:30.203Z,85.50
2017-05-19T00:40:57.189Z,85.60
2017-05-19T00:43:24.173Z,86.40
2017-05-19T00:45:51.133Z,86.10
2017-05-19T00:48:18.098Z,85.70
2017-05-19T00:50:45.081Z,86.00
2017-05-19T00:53:12.032Z,86.30
2017-05-19T00:55:39.081Z,86.30
2017-05-19T00:58:06.401Z,86.10
2017-05-19T01:00:33.376Z,85.70
2017-05-19T01:03:00.380Z,85.90
2017-05-19T01:05:27.353Z,86.10
2017-05-19T01:07:54.314Z,86.00
2017-05-19T01:10:21.337Z,85.30
2017-05-19T01:12:48.310Z,85.60
2017-05-19T01:15:16.037Z,85.10
2017-05-19T01:17:42.984Z,85.20
2017-05-19T01:20:10.015Z,85.50
2017-05-19T01:22:37.006Z,85.50
2017-05-19T01:25:03.968Z,85.00
2017-05-19T01:27:30.945Z,85.80
2017-05-19T01:29:57.894Z,85.40
2017-05-19T01:32:24.896Z,85.30
2017-05-19T01:34:51.931Z,85.70
2017-05-19T01:37:18.929Z,85.00
2017-05-19T01:39:45.909Z,84.90
2017-05-19T01:42:12.873Z,85.30
2017-05-19T01:44:39.977Z,86.10
2017-05-19T01:47:06.957Z,85.70
2017-05-19T01:49:33.973Z,84.70
2017-05-19T01:52:01.009Z,85.20
2017-05-19T01:54:28.005Z,84.20
2017-05-19T01:56:54.982Z,83.90
2017-05-19T01:59:21.973Z,83.80
2017-05-19T02:01:48.957Z,84.30
2017-05-19T02:04:15.913Z,83.70
2017-05-19T02:06:42.908Z,84.20
2017-05-19T02:09:09.900Z,84.40
2017-05-19T02:11:36.904Z,84.80
2017-05-19T02:14:03.886Z,84.00
2017-05-19T02:16:30.854Z,84.40
2017-05-19T02:18:58.581Z,84.20
2017-05-19T02:21:25.530Z,83.50
2017-05-19T02:23:52.524Z,84.20
2017-05-19T02:26:19.509Z,86.10
2017-05-19T02:28:46.472Z,84.80
2017-05-19T02:31:13.449Z,83.50
2017-05-19T02:33:40.402Z,84.40
2017-05-19T02:36:07.484Z,84.20
2017-05-19T02:38:34.447Z,84.30
2017-05-19T02:41:01.425Z,85.00
2017-05-19T02:43:28.428Z,84.60
2017-05-19T02:45:55.474Z,85.30
2017-05-19T02:48:22.450Z,85.00
2017-05-19T02:50:49.409Z,83.70
2017-05-19T02:53:16.446Z,84.50
2017-05-19T02:55:43.456Z,83.90
2017-05-19T02:58:10.408Z,84.00
2017-05-19T03:00:37.375Z,84.40
2017-05-19T03:03:04.337Z,84.20
2017-05-19T03:05:31.333Z,83.60
2017-05-19T03:07:58.292Z,83.80
2017-05-19T03:10:25.278Z,83.00
2017-05-19T03:12:52.281Z,82.30
2017-05-19T03:15:19.236Z,81.40
2017-05-19T03:17:46.196Z,81.70
2017-05-19T03:20:13.173Z,81.70
2017-05-19T03:22:40.172Z,82.50
2017-05-19T03:25:07.153Z,83.20
2017-05-19T03:27:34.129Z,82.10
2017-05-19T03:30:01.092Z,82.10
2017-05-19T03:32:28.101Z,82.70
2017-05-19T03:34:55.072Z,82.70
2017-05-19T03:37:22.036Z,83.00
2017-05-19T03:39:49.750Z,83.40
2017-05-19T03:42:16.752Z,82.60
2017-05-19T03:44:43.724Z,82.80
2017-05-19T03:47:10.699Z,82.70
2017-05-19T03:49:37.687Z,81.90
2017-05-19T03:52:04.633Z,82.20
2017-05-19T03:54:32.356Z,83.30
2017-05-19T03:56:59.321Z,83.20
2017-05-19T03:59:26.345Z,82.80
2017-05-19T04:01:53.424Z,81.90
2017-05-19T04:04:24.268Z,81.60
2017-05-19T04:06:51.336Z,83.00
2017-05-19T04:09:18.355Z,82.50
2017-05-19T04:11:45.349Z,81.60
2017-05-19T04:14:12.353Z,83.60
2017-05-19T04:16:39.333Z,82.20
2017-05-19T04:19:06.333Z,81.10
2017-05-19T04:21:33.325Z,80.00
2017-05-19T04:24:00.284Z,80.20
2017-05-19T04:26:27.320Z,79.50
2017-05-19T04:28:54.282Z,79.70
2017-05-19T04:31:21.257Z,79.50
2017-05-19T04:33:48.252Z,80.20
2017-05-19T04:36:15.314Z,80.40
2017-05-19T04:38:42.298Z,80.00
2017-05-19T04:41:09.261Z,79.50
2017-05-19T04:43:36.261Z,79.30
2017-05-19T04:46:03.238Z,79.00
2017-05-19T04:48:30.211Z,78.50
2017-05-19T04:50:57.190Z,78.20
2017-05-19T04:53:24.877Z,78.10
2017-05-19T04:55:51.849Z,78.70
2017-05-19T04:58:18.817Z,79.30
2017-05-19T05:00:45.772Z,79.20
2017-05-19T05:03:12.753Z,80.20
2017-05-19T05:05:43.554Z,79.00
2017-05-19T05:08:10.548Z,79.90
2017-05-19T05:10:37.540Z,79.30
2017-05-19T05:13:04.546Z,80.40
2017-05-19T05:15:31.525Z,80.70
2017-05-19T05:17:58.502Z,80.30
2017-05-19T05:20:25.496Z,80.30
2017-05-19T05:22:52.470Z,80.10
2017-05-19T05:25:19.493Z,78.90
2017-05-19T05:27:46.472Z,78.10
2017-05-19T05:30:13.491Z,78.20
2017-05-19T05:32:40.488Z,78.00
2017-05-19T05:35:11.084Z,75.60
2017-05-19T05:37:38.956Z,76.20
2017-05-19T05:40:05.933Z,75.20
2017-05-19T05:42:32.923Z,74.70
2017-05-19T05:44:59.894Z,74.10
2017-05-19T05:47:26.927Z,74.30
2017-05-19T05:49:53.937Z,76.30
2017-05-19T05:52:24.713Z,74.00
2017-05-19T05:54:51.696Z,74.50
2017-05-19T05:57:18.644Z,73.70
2017-05-19T05:59:45.624Z,72.90
2017-05-19T06:02:12.592Z,73.00
2017-05-19T06:04:39.562Z,72.00
2017-05-19T06:07:06.552Z,71.70
2017-05-19T06:09:33.567Z,72.30
2017-05-19T06:12:00.527Z,71.30
2017-05-19T06:14:27.533Z,71.10
2017-05-19T06:16:54.520Z,72.30
2017-05-19T06:19:21.496Z,71.90
2017-05-19T06:21:49.256Z,72.30
2017-05-19T06:24:16.225Z,71.90
2017-05-19T06:26:43.213Z,72.00
2017-05-19T06:29:10.176Z,73.20
2017-05-19T06:31:37.124Z,72.90
2017-05-19T06:34:04.108Z,72.40
2017-05-19T06:36:31.075Z,72.90
2017-05-19T06:38:58.061Z,74.20
2017-05-19T06:41:25.020Z,73.20
2017-05-19T06:43:51.985Z,73.90
2017-05-19T06:46:19.713Z,74.00
2017-05-19T06:48:46.685Z,74.30
2017-05-19T06:51:14.197Z,74.70
2017-05-19T06:53:41.222Z,75.50
2017-05-19T06:56:08.188Z,76.00
2017-05-19T06:58:35.225Z,75.20
2017-05-19T07:01:02.214Z,74.70
2017-05-19T07:03:29.201Z,75.40
2017-05-19T07:05:56.165Z,75.50
2017-05-19T07:08:23.144Z,73.90
2017-05-19T07:10:50.244Z,74.80
2017-05-19T07:13:17.257Z,74.30
2017-05-19T07:15:45.418Z,74.20
2017-05-19T07:18:12.511Z,74.00
2017-05-19T07:20:39.504Z,74.10
2017-05-19T07:23:06.496Z,73.90
2017-05-19T07:25:33.496Z,75.40
2017-05-19T07:28:00.465Z,74.90
2017-05-19T07:30:27.485Z,75.70
2017-05-19T07:32:55.144Z,74.60
2017-05-19T07:35:22.141Z,74.60
2017-05-19T07:37:49.112Z,74.10
2017-05-19T07:40:16.120Z,73.80
2017-05-19T07:42:43.101Z,73.50
2017-05-19T07:45:10.788Z,74.30
2017-05-19T07:47:37.797Z,74.60
2017-05-19T07:50:04.772Z,74.20
2017-05-19T07:52:31.761Z,75.70
2017-05-19T07:54:58.753Z,76.00
2017-05-19T07:57:26.457Z,76.00
2017-05-19T07:59:53.432Z,76.10
2017-05-19T08:02:20.381Z,75.50
2017-05-19T08:04:47.354Z,76.50
2017-05-19T08:07:15.289Z,77.50
2017-05-19T08:09:42.258Z,77.60
2017-05-19T08:12:09.266Z,78.00
2017-05-19T08:14:36.225Z,78.50
2017-05-19T08:17:04.636Z,75.30
2017-05-19T08:19:31.609Z,75.00
2017-05-19T08:21:58.563Z,75.90
2017-05-19T08:24:25.544Z,76.40
2017-05-19T08:26:52.517Z,78.00
2017-05-19T08:29:19.484Z,77.40
2017-05-19T08:31:46.460Z,76.00
2017-05-19T08:34:13.424Z,77.10
2017-05-19T08:36:40.417Z,76.00
2017-05-19T08:39:10.505Z,75.80
2017-05-19T08:41:37.565Z,76.00
2017-05-19T08:44:04.543Z,75.60
2017-05-19T08:46:31.496Z,75.60
2017-05-19T08:48:58.436Z,74.80
2017-05-19T08:51:25.424Z,74.20
2017-05-19T08:53:52.465Z,72.70
2017-05-19T08:56:19.448Z,73.00
2017-05-19T08:58:46.426Z,71.80
2017-05-19T09:01:13.432Z,72.50
2017-05-19T09:03:40.402Z,72.80
2017-05-19T09:06:07.364Z,73.20
2017-05-19T09:08:34.336Z,72.00
2017-05-19T09:11:01.317Z,72.60
2017-05-19T09:13:28.262Z,72.50
2017-05-19T09:15:55.237Z,73.00
2017-05-19T09:18:22.208Z,72.20
2017-05-19T09:20:49.185Z,72.80
2017-05-19T09:23:16.141Z,73.30
2017-05-19T09:25:43.196Z,74.10
2017-05-19T09:28:10.165Z,74.30
2017-05-19T09:30:37.136Z,75.80
2017-05-19T09:33:09.086Z,77.70
2017-05-19T09:35:36.270Z,77.70
2017-05-19T09:38:03.229Z,79.80
2017-05-19T09:40:30.216Z,80.40
2017-05-19T09:42:57.176Z,81.30
2017-05-19T09:45:24.136Z,81.30
2017-05-19T09:47:51.289Z,81.30
2017-05-19T09:50:18.288Z,81.90
2017-05-19T09:52:45.282Z,83.00
2017-05-19T09:55:12.499Z,84.10
2017-05-19T09:57:39.472Z,82.10
2017-05-19T10:00:06.480Z,83.50
2017-05-19T10:02:33.460Z,82.80
2017-05-19T10:05:00.440Z,84.00
2017-05-19T10:07:27.397Z,83.30
2017-05-19T10:09:54.362Z,81.80
2017-05-19T10:12:21.381Z,82.70
2017-05-19T10:14:48.356Z,81.60
2017-05-19T10:17:15.321Z,80.50
2017-05-19T10:19:42.296Z,78.70
2017-05-19T10:22:09.272Z,79.80
2017-05-19T10:24:36.257Z,80.10
2017-05-19T10:27:03.216Z,79.90
2017-05-19T10:29:30.173Z,80.60
2017-05-19T10:31:57.149Z,79.20
2017-05-19T10:34:24.093Z,79.10
2017-05-19T10:36:51.100Z,78.40
2017-05-19T10:39:18.068Z,80.30
2017-05-19T10:41:45.041Z,79.70
2017-05-19T10:44:12.057Z,77.80
2017-05-19T10:46:39.017Z,79.20
2017-05-19T10:49:06.007Z,78.60
2017-05-19T10:51:32.968Z,78.60
2017-05-19T10:53:59.968Z,79.10
2017-05-19T10:56:26.964Z,79.30
2017-05-19T10:58:53.933Z,79.10
2017-05-19T11:01:20.941Z,80.20
2017-05-19T11:03:47.913Z,80.00
2017-05-19T11:06:14.873Z,78.50
2017-05-19T11:08:41.854Z,79.80
2017-05-19T11:11:09.631Z,80.90
2017-05-19T11:13:36.608Z,80.80
2017-05-19T11:16:03.593Z,82.40
2017-05-19T11:18:30.581Z,82.10
2017-05-19T11:20:57.548Z,81.70
2017-05-19T11:23:24.497Z,80.10
2017-05-19T11:25:51.521Z,78.60
2017-05-19T11:28:18.492Z,80.60
2017-05-19T11:30:45.477Z,78.20
2017-05-19T11:33:12.440Z,79.70
2017-05-19T11:35:39.382Z,80.00
2017-05-19T11:38:06.360Z,78.30
2017-05-19T11:40:33.326Z,78.90
2017-05-19T11:43:00.309Z,80.50
2017-05-19T11:45:27.293Z,79.80
2017-05-19T11:47:54.253Z,81.00
2017-05-19T11:50:21.247Z,82.00
2017-05-19T11:52:48.201Z,82.40
2017-05-19T11:55:15.173Z,82.00
2017-05-19T11:57:42.149Z,80.40
2017-05-19T12:00:09.141Z,81.00
2017-05-19T12:02:36.105Z,81.30
2017-05-19T12:05:03.060Z,78.70
2017-05-19T12:07:30.025Z,79.10
2017-05-19T12:10:00.124Z,80.00
2017-05-19T12:12:27.136Z,78.10
2017-05-19T12:14:54.096Z,78.20
2017-05-19T12:17:21.071Z,79.90
2017-05-19T12:19:48.052Z,78.20
2017-05-19T12:22:15.016Z,78.60
2017-05-19T12:24:41.976Z,79.70
2017-05-19T12:27:08.973Z,79.80
2017-05-19T12:29:35.952Z,81.00
2017-05-19T12:32:12.627Z,79.80
2017-05-19T12:34:45.871Z,80.20
2017-05-19T12:37:15.389Z,80.60
2017-05-19T12:39:42.434Z,79.30
2017-05-19T12:42:09.416Z,79.60
2017-05-19T12:44:36.384Z,79.20
2017-05-19T12:47:03.333Z,79.40
2017-05-19T12:49:30.320Z,79.50
2017-05-19T12:51:57.311Z,80.00
2017-05-19T12:54:24.284Z,80.50
2017-05-19T12:56:51.276Z,79.50
2017-05-19T12:59:18.262Z,79.80
2017-05-19T13:01:45.253Z,79.20
2017-05-19T13:04:12.950Z,79.30
2017-05-19T13:06:39.940Z,79.20
2017-05-19T13:09:08.949Z,78.70
2017-05-19T13:11:35.932Z,80.00
2017-05-19T13:14:02.917Z,81.00
2017-05-19T13:16:29.917Z,79.60
2017-05-19T13:18:56.896Z,78.00
2017-05-19T13:21:23.857Z,75.50
2017-05-19T13:23:50.840Z,74.90
2017-05-19T13:26:17.805Z,76.90
2017-05-19T13:28:44.800Z,77.80
2017-05-19T13:31:11.779Z,75.60
2017-05-19T13:33:38.750Z,76.70
2017-05-19T13:38:45.237Z,74.90
2017-05-19T13:41:12.204Z,74.40
2017-05-19T13:43:39.174Z,74.30
2017-05-19T13:46:06.176Z,75.50
2017-05-19T13:48:33.141Z,73.20
2017-05-19T13:51:00.101Z,74.10
2017-05-19T13:53:27.114Z,74.20
2017-05-19T13:55:54.093Z,75.30
2017-05-19T13:58:21.061Z,75.90
2017-05-19T14:00:48.045Z,76.60
2017-05-19T14:03:15.000Z,76.20
2017-05-19T14:05:41.950Z,76.10
2017-05-19T14:08:08.925Z,75.80
2017-05-19T14:10:35.884Z,76.70
2017-05-19T14:13:02.865Z,77.00
2017-05-19T14:15:29.861Z,76.30
2017-05-19T14:17:56.832Z,76.40
2017-05-19T14:20:23.837Z,74.30
2017-05-19T14:22:50.821Z,76.70
2017-05-19T14:25:17.780Z,76.40
2017-05-19T14:27:44.764Z,76.60
2017-05-19T14:30:11.744Z,75.20
2017-05-19T14:32:38.775Z,76.20
2017-05-19T14:35:05.712Z,76.40
2017-05-19T14:37:32.659Z,76.40
2017-05-19T14:39:59.645Z,76.10
2017-05-19T14:42:26.627Z,76.10
2017-05-19T14:44:53.600Z,75.80
2017-05-19T14:47:20.593Z,76.70
2017-05-19T14:49:47.573Z,74.60
2017-05-19T14:52:14.590Z,75.60
2017-05-19T14:54:41.560Z,75.60
2017-05-19T14:57:08.537Z,77.00
2017-05-19T14:59:35.488Z,77.20
2017-05-19T15:02:02.497Z,75.10
2017-05-19T15:04:29.509Z,75.60
2017-05-19T15:06:56.456Z,75.40
2017-05-19T15:09:23.418Z,74.30
2017-05-19T15:11:50.434Z,74.80
2017-05-19T15:14:17.417Z,71.40
2017-05-19T15:16:44.386Z,71.70
2017-05-19T15:19:11.337Z,71.20
2017-05-19T15:21:39.062Z,72.00
2017-05-19T15:24:06.024Z,71.80
2017-05-19T15:26:33.041Z,71.60
2017-05-19T15:29:00.012Z,71.80
2017-05-19T15:31:27.000Z,70.90
2017-05-19T15:33:53.985Z,71.00
2017-05-19T15:36:20.958Z,71.60
2017-05-19T15:38:47.925Z,72.10
2017-05-19T15:41:14.904Z,72.10
2017-05-19T15:43:41.877Z,71.10
2017-05-19T15:46:08.913Z,71.40
2017-05-19T15:48:35.914Z,72.10
2017-05-19T15:51:02.888Z,71.40
2017-05-19T15:53:29.853Z,71.50
2017-05-19T15:55:56.835Z,71.60
2017-05-19T15:58:23.794Z,72.10
2017-05-19T16:00:50.780Z,70.70
2017-05-19T16:03:17.781Z,72.40
2017-05-19T16:05:44.865Z,71.10
2017-05-19T16:08:11.839Z,70.40
2017-05-19T16:10:38.825Z,71.70
2017-05-19T16:13:05.853Z,71.90
2017-05-19T16:15:32.824Z,72.20
2017-05-19T16:17:59.821Z,71.30
2017-05-19T16:20:26.779Z,71.20
2017-05-19T16:22:53.772Z,72.60
2017-05-19T16:25:20.752Z,72.70
2017-05-19T16:27:47.757Z,71.80
2017-05-19T16:30:14.731Z,73.40
2017-05-19T16:32:41.706Z,73.10
2017-05-19T16:35:08.684Z,73.20
2017-05-19T16:37:35.680Z,72.90
2017-05-19T16:40:03.403Z,75.10
2017-05-19T16:42:30.413Z,73.00
2017-05-19T16:44:57.401Z,73.00
2017-05-19T16:47:24.373Z,74.20
2017-05-19T16:49:51.346Z,74.50
2017-05-19T16:52:18.331Z,74.80
2017-05-19T16:54:45.317Z,75.30
2017-05-19T16:57:12.318Z,76.50
2017-05-19T16:59:39.289Z,75.90
2017-05-19T17:02:06.282Z,73.50
2017-05-19T17:04:33.270Z,76.00
2017-05-19T17:07:00.257Z,76.20
2017-05-19T17:09:27.250Z,74.20
2017-05-19T17:11:54.258Z,74.00
2017-05-19T17:14:21.310Z,74.50
2017-05-19T17:16:49.032Z,73.20
2017-05-19T17:19:16.064Z,72.00
2017-05-19T17:21:43.077Z,74.40
2017-05-19T17:24:10.070Z,71.80
2017-05-19T17:26:37.090Z,73.50
2017-05-19T17:29:04.069Z,72.50
2017-05-19T17:31:31.071Z,72.40
2017-05-19T17:33:58.075Z,72.60
2017-05-19T17:36:25.049Z,71.90
2017-05-19T17:38:52.072Z,71.50
2017-05-19T17:41:19.085Z,71.70
2017-05-19T17:43:46.085Z,71.10
2017-05-19T17:46:13.073Z,71.10
2017-05-19T17:48:40.045Z,72.20
2017-05-19T17:51:07.061Z,71.30
2017-05-19T17:53:34.051Z,68.70
2017-05-19T17:56:01.017Z,67.80
2017-05-19T17:58:28.004Z,68.40
2017-05-19T18:00:55.057Z,68.70
2017-05-19T18:03:22.038Z,68.80
2017-05-19T18:05:49.044Z,69.50
2017-05-19T18:08:16.062Z,70.40
2017-05-19T18:10:43.032Z,69.90
2017-05-19T18:13:10.030Z,69.40
2017-05-19T18:15:37.037Z,71.80
2017-05-19T18:18:03.997Z,72.20
2017-05-19T18:20:31.005Z,71.30
2017-05-19T18:22:57.966Z,69.00
2017-05-19T18:25:24.937Z,71.10
2017-05-19T18:27:51.920Z,71.70
2017-05-19T18:30:18.988Z,72.30
2017-05-19T18:32:45.998Z,72.70
2017-05-19T18:35:13.022Z,73.20
2017-05-19T18:37:39.997Z,73.40
2017-05-19T18:40:07.034Z,73.50
2017-05-19T18:42:34.037Z,74.20
2017-05-19T18:45:00.997Z,74.00
2017-05-19T18:47:27.978Z,74.40
2017-05-19T18:50:30.961Z,75.80
2017-05-19T18:52:59.219Z,76.50
2017-05-19T18:55:27.497Z,77.60
2017-05-19T18:57:55.755Z,77.50
2017-05-19T19:00:24.017Z,77.70
2017-05-19T19:02:52.281Z,79.00
2017-05-19T19:05:20.543Z,78.40
2017-05-19T19:07:48.778Z,78.70
2017-05-19T19:10:17.051Z,78.10
2017-05-19T19:12:45.301Z,78.70
2017-05-19T19:15:13.586Z,78.60
2017-05-19T19:17:41.824Z,78.70
2017-05-19T19:20:10.065Z,78.80
2017-05-19T19:22:38.335Z,78.90
2017-05-19T19:25:06.584Z,78.80
2017-05-19T19:27:34.855Z,78.70
2017-05-19T19:30:03.129Z,78.60
2017-05-19T19:32:31.394Z,77.80
2017-05-19T19:34:59.646Z,78.20
2017-05-19T19:37:27.930Z,77.80
2017-05-19T19:39:56.179Z,77.60
2017-05-19T19:42:24.435Z,77.20
2017-05-19T19:44:52.722Z,77.90
2017-05-19T19:47:20.978Z,77.70
2017-05-19T19:49:49.235Z,78.20
2017-05-19T19:52:17.500Z,77.80
2017-05-19T19:54:46.518Z,77.70
2017-05-19T19:57:14.795Z,78.00
2017-05-19T19:59:43.047Z,78.50
2017-05-19T20:02:11.314Z,78.30
2017-05-19T20:04:39.569Z,78.40
2017-05-19T20:07:07.816Z,78.50
2017-05-19T20:09:36.147Z,78.20
2017-05-19T20:12:04.402Z,77.90
2017-05-19T20:14:32.674Z,78.20
2017-05-19T20:17:00.930Z,77.90
2017-05-19T20:19:29.209Z,78.50
2017-05-19T20:21:57.455Z,77.40
2017-05-19T20:24:25.726Z,77.20
2017-05-19T20:26:53.968Z,77.40
2017-05-19T20:29:22.212Z,77.40
2017-05-19T20:31:50.475Z,77.30
2017-05-19T20:34:18.732Z,77.60
2017-05-19T20:36:46.996Z,77.30
2017-05-19T20:39:15.262Z,77.40
2017-05-19T20:41:43.505Z,77.20
2017-05-19T20:44:11.777Z,76.70
2017-05-19T20:46:40.024Z,76.70
2017-05-19T20:49:08.276Z,76.60
2017-05-19T20:51:36.541Z,76.10
2017-05-19T20:54:04.820Z,76.60
2017-05-19T20:56:33.111Z,77.70
2017-05-19T20:59:01.383Z,76.60
2017-05-19T21:01:29.646Z,77.40
2017-05-19T21:03:57.909Z,78.20
2017-05-19T21:06:26.165Z,78.50
2017-05-19T21:08:54.410Z,77.10
2017-05-19T21:11:22.685Z,77.10
2017-05-19T21:13:50.943Z,77.50
2017-05-19T21:16:19.235Z,76.80
2017-05-19T21:18:47.490Z,76.60
2017-05-19T21:21:15.757Z,77.00
2017-05-19T21:23:44.018Z,77.10
2017-05-19T21:26:12.272Z,77.50
2017-05-19T21:28:40.582Z,77.70
2017-05-19T21:31:08.847Z,78.30
2017-05-19T21:33:37.107Z,78.20
2017-05-19T21:36:05.379Z,78.50
2017-05-19T21:38:33.658Z,79.10
2017-05-19T21:41:01.918Z,79.10
2017-05-19T21:43:30.184Z,78.90
2017-05-19T21:45:58.487Z,79.10
2017-05-19T21:48:26.745Z,79.60
2017-05-19T21:50:55.015Z,79.70
2017-05-19T21:53:23.285Z,79.30
2017-05-19T21:55:51.558Z,79.30
2017-05-19T21:58:19.813Z,79.50
2017-05-19T22:00:48.066Z,79.70
2017-05-19T22:03:16.328Z,79.50
2017-05-19T22:05:44.594Z,79.80
2017-05-19T22:08:12.831Z,79.90
2017-05-19T22:10:41.070Z,80.10
2017-05-19T22:13:09.332Z,80.40
2017-05-19T22:15:37.585Z,80.40
2017-05-19T22:18:05.846Z,80.60
2017-05-19T22:20:34.087Z,80.80
2017-05-19T22:23:02.357Z,80.70
2017-05-19T22:25:30.600Z,80.60
2017-05-19T22:27:58.882Z,80.30
2017-05-19T22:30:27.154Z,80.60
2017-05-19T22:32:55.418Z,80.50
2017-05-19T22:35:23.657Z,80.10
2017-05-19T22:37:51.917Z,79.90
2017-05-19T22:40:20.178Z,80.30
2017-05-19T22:42:48.450Z,80.40
2017-05-19T22:45:16.717Z,80.50
2017-05-19T22:47:44.984Z,80.70
2017-05-19T22:50:12.463Z,80.60
2017-05-19T22:52:40.721Z,80.60
2017-05-19T22:55:08.997Z,80.40
2017-05-19T22:57:37.252Z,80.40
2017-05-19T23:00:05.502Z,80.10
2017-05-19T23:02:33.767Z,79.90
2017-05-19T23:05:02.079Z,80.20
2017-05-19T23:07:30.366Z,80.30
2017-05-19T23:09:58.657Z,80.30
2017-05-19T23:12:26.926Z,80.50
2017-05-19T23:14:55.193Z,80.30
2017-05-19T23:17:23.451Z,80.70
2017-05-19T23:19:51.760Z,81.20
2017-05-19T23:22:20.009Z,81.10
2017-05-19T23:24:48.262Z,81.20
2017-05-19T23:27:16.521Z,80.90
2017-05-19T23:29:44.786Z,81.10
2017-05-19T23:32:13.034Z,81.20
2017-05-19T23:34:41.305Z,81.20
2017-05-19T23:37:09.548Z,81.40
2017-05-19T23:39:37.854Z,81.30
2017-05-19T23:42:06.094Z,81.30
2017-05-19T23:44:34.343Z,81.70
2017-05-19T23:47:02.614Z,81.30
2017-05-19T23:49:30.890Z,81.80
2017-05-19T23:51:59.157Z,82.00
2017-05-19T23:54:27.410Z,82.20
2017-05-19T23:56:55.682Z,81.90
2017-05-19T23:59:23.948Z,81.40
